Terminal Aerodrome Forecast
Issued by NWS Charleston, WV

Current Version | Previous Version | Graphics & Text | Print | Product List | Glossary On
Versions: 1 2 3 4 5 6 7 8 9 10 11 12 13 14 15 16 17 18 19 20 21 22 23 24 25 26 27 28 29 30
000
FTUS41 KRLX 131400 AAB
TAFBKW
TAF AMD
KBKW 131440Z 1315/1412 33007KT 5SM SHRA BR BKN005 OVC012
     FM131600 33007KT P6SM OVC012
     FM140400 01004KT P6SM BKN020
     FM140500 VRB03KT P6SM SCT250=

USA.gov is the U.S. government's official web portal to all federal, state and local government web resources and services.